Time,TemperatureF,DewpointF,PressureIn,WindDirection,WindDirectionDegrees,WindSpeedMPH,WindSpeedGustMPH,Humidity,HourlyPrecipIn,Conditions,Clouds,dailyrainin,SolarRadiationWatts/m^2,SoftwareType,DateUTC
2013-08-13 00:00:00,65.0,63.0,-100.00,NW,315,3.0,-999.0,92,-99.99,,,-99.99,0.000000,,2013-08-13 04:00:00,
2013-08-13 00:42:00,65.0,63.0,-100.00,NW,315,3.0,-999.0,92,-99.99,,,-99.99,0.000000,,2013-08-13 04:42:00,
2013-08-13 00:53:00,65.0,63.0,-100.00,NW,315,3.0,-999.0,92,-99.99,,,-99.99,0.000000,,2013-08-13 04:53:00,
2013-08-13 01:00:00,63.0,61.0,-100.00,NNW,337,3.0,-999.0,92,-99.99,,,-99.99,0.000000,,2013-08-13 05:00:00,
2013-08-13 01:42:00,63.0,61.0,-100.00,NNW,337,3.0,-999.0,92,-99.99,,,-99.99,0.000000,,2013-08-13 05:42:00,
2013-08-13 01:52:00,63.0,61.0,-100.00,NNW,337,3.0,-999.0,92,-99.99,,,-99.99,0.000000,,2013-08-13 05:52:00,
2013-08-13 02:00:00,62.0,60.0,-100.00,NNW,337,3.0,-999.0,92,0.01,,,-99.99,0.000000,,2013-08-13 06:00:00,
2013-08-13 02:42:00,62.0,60.0,-100.00,NNW,337,3.0,-999.0,92,0.01,,,-99.99,0.000000,,2013-08-13 06:42:00,
2013-08-13 02:53:00,62.0,60.0,-100.00,NNW,337,3.0,-999.0,92,0.01,,,-99.99,0.000000,,2013-08-13 06:53:00,
2013-08-13 03:00:00,61.0,59.0,-100.00,NNW,337,1.0,-999.0,92,-99.99,,,-99.99,0.000000,,2013-08-13 07:00:00,
2013-08-13 03:42:00,61.0,59.0,-100.00,NNW,337,1.0,-999.0,92,-99.99,,,-99.99,0.000000,,2013-08-13 07:42:00,
2013-08-13 03:52:00,61.0,59.0,-100.00,NNW,337,1.0,-999.0,92,-99.99,,,-99.99,0.000000,,2013-08-13 07:52:00,
2013-08-13 04:00:00,60.0,58.0,-100.00,North,0,3.0,-999.0,92,-99.99,,,-99.99,0.000000,,2013-08-13 08:00:00,
2013-08-13 04:42:00,60.0,58.0,-100.00,North,0,3.0,-999.0,92,-99.99,,,-99.99,0.000000,,2013-08-13 08:42:00,
2013-08-13 04:52:00,60.0,58.0,-100.00,North,0,3.0,-999.0,92,-99.99,,,-99.99,0.000000,,2013-08-13 08:52:00,
2013-08-13 05:00:00,58.0,56.0,-100.00,North,0,5.0,-999.0,92,-99.99,,,-99.99,0.000000,,2013-08-13 09:00:00,
2013-08-13 05:43:00,58.0,56.0,-100.00,North,0,5.0,-999.0,92,-99.99,,,-99.99,0.000000,,2013-08-13 09:43:00,
2013-08-13 05:54:00,58.0,56.0,-100.00,North,0,5.0,-999.0,92,-99.99,,,-99.99,0.000000,,2013-08-13 09:54:00,
2013-08-13 06:00:00,57.0,55.0,-100.00,North,0,5.0,-999.0,92,-99.99,,,-99.99,0.000000,,2013-08-13 10:00:00,
2013-08-13 06:43:00,57.0,55.0,-100.00,North,0,5.0,-999.0,92,-99.99,,,-99.99,0.000000,,2013-08-13 10:43:00,
2013-08-13 06:53:00,57.0,55.0,-100.00,North,0,5.0,-999.0,92,-99.99,,,-99.99,0.000000,,2013-08-13 10:53:00,
2013-08-13 07:00:00,57.0,54.0,-100.00,North,0,5.0,-999.0,92,-99.99,,,-99.99,1.160000,,2013-08-13 11:00:00,
2013-08-13 07:42:00,57.0,54.0,-100.00,North,0,5.0,-999.0,92,-99.99,,,-99.99,1.160000,,2013-08-13 11:42:00,
2013-08-13 07:52:00,57.0,54.0,-100.00,North,0,5.0,-999.0,92,-99.99,,,-99.99,1.160000,,2013-08-13 11:52:00,
2013-08-13 08:00:00,55.0,53.0,-100.00,North,0,5.0,-999.0,91,-99.99,,,-99.99,34.799999,,2013-08-13 12:00:00,
2013-08-13 08:42:00,55.0,53.0,-100.00,North,0,5.0,-999.0,91,-99.99,,,-99.99,34.799999,,2013-08-13 12:42:00,
2013-08-13 08:52:00,55.0,53.0,-100.00,North,0,5.0,-999.0,91,-99.99,,,-99.99,34.799999,,2013-08-13 12:52:00,
2013-08-13 10:00:00,58.0,50.0,-100.00,NNE,22,6.0,-999.0,76,-99.99,,,-99.99,344.519989,,2013-08-13 14:00:00,
2013-08-13 10:42:00,58.0,50.0,-100.00,NNE,22,6.0,-999.0,76,-99.99,,,-99.99,344.519989,,2013-08-13 14:42:00,
2013-08-13 10:52:00,58.0,50.0,-100.00,NNE,22,6.0,-999.0,76,-99.99,,,-99.99,344.519989,,2013-08-13 14:52:00,
2013-08-13 11:00:00,59.0,49.0,-100.00,North,0,7.0,-999.0,67,-99.99,,,-99.99,472.119995,,2013-08-13 15:00:00,
2013-08-13 11:44:00,59.0,49.0,-100.00,North,0,7.0,-999.0,67,-99.99,,,-99.99,472.119995,,2013-08-13 15:44:00,
2013-08-13 11:54:00,59.0,49.0,-100.00,North,0,7.0,-999.0,67,-99.99,,,-99.99,472.119995,,2013-08-13 15:54:00,
2013-08-13 12:00:00,62.0,48.0,-100.00,NNW,337,7.0,-999.0,60,-99.99,,,-99.99,624.080017,,2013-08-13 16:00:00,
2013-08-13 12:45:00,62.0,48.0,-100.00,NNW,337,7.0,-999.0,60,-99.99,,,-99.99,624.080017,,2013-08-13 16:45:00,
2013-08-13 12:54:00,62.0,48.0,-100.00,NNW,337,7.0,-999.0,60,-99.99,,,-99.99,624.080017,,2013-08-13 16:54:00,
2013-08-13 14:00:00,66.0,47.0,-100.00,North,0,6.0,-999.0,50,-99.99,,,-99.99,788.799988,,2013-08-13 18:00:00,
2013-08-13 14:45:00,66.0,47.0,-100.00,North,0,6.0,-999.0,50,-99.99,,,-99.99,788.799988,,2013-08-13 18:45:00,
2013-08-13 14:56:00,66.0,47.0,-100.00,North,0,6.0,-999.0,50,-99.99,,,-99.99,788.799988,,2013-08-13 18:56:00,
2013-08-13 15:00:00,66.0,47.0,-100.00,NNW,337,6.0,-999.0,50,-99.99,,,-99.99,684.400024,,2013-08-13 19:00:00,
2013-08-13 15:44:00,66.0,47.0,-100.00,NNW,337,6.0,-999.0,50,-99.99,,,-99.99,684.400024,,2013-08-13 19:44:00,
2013-08-13 15:55:00,66.0,47.0,-100.00,NNW,337,6.0,-999.0,50,-99.99,,,-99.99,684.400024,,2013-08-13 19:55:00,
2013-08-13 17:00:00,66.0,48.0,-100.00,NNW,337,6.0,-999.0,52,-99.99,,,-99.99,519.679993,,2013-08-13 21:00:00,
2013-08-13 17:46:00,66.0,48.0,-100.00,NNW,337,6.0,-999.0,52,-99.99,,,-99.99,519.679993,,2013-08-13 21:46:00,
2013-08-13 17:54:00,66.0,48.0,-100.00,NNW,337,6.0,-999.0,52,-99.99,,,-99.99,519.679993,,2013-08-13 21:54:00,
2013-08-13 18:00:00,65.0,47.0,-100.00,NNW,337,8.0,-999.0,52,-99.99,,,-99.99,481.399994,,2013-08-13 22:00:00,
2013-08-13 18:50:00,65.0,47.0,-100.00,NNW,337,8.0,-999.0,52,-99.99,,,-99.99,481.399994,,2013-08-13 22:50:00,
2013-08-13 18:57:00,65.0,47.0,-100.00,NNW,337,8.0,-999.0,52,-99.99,,,-99.99,481.399994,,2013-08-13 22:57:00,
2013-08-13 19:00:00,64.0,47.0,-100.00,NNW,337,8.0,-999.0,53,-99.99,,,-99.99,342.200012,,2013-08-13 23:00:00,
2013-08-13 19:47:00,64.0,47.0,-100.00,NNW,337,8.0,-999.0,53,-99.99,,,-99.99,342.200012,,2013-08-13 23:47:00,
2013-08-13 19:57:00,64.0,47.0,-100.00,NNW,337,8.0,-999.0,53,-99.99,,,-99.99,342.200012,,2013-08-13 23:57:00,
2013-08-13 22:00:00,55.0,47.0,-100.00,NNW,337,3.0,-999.0,73,-99.99,,,-99.99,0.000000,,2013-08-14 02:00:00,
2013-08-13 22:42:00,55.0,47.0,-100.00,NNW,337,3.0,-999.0,73,-99.99,,,-99.99,0.000000,,2013-08-14 02:42:00,
2013-08-13 22:52:00,55.0,47.0,-100.00,NNW,337,3.0,-999.0,73,-99.99,,,-99.99,0.000000,,2013-08-14 02:52:00,
2013-08-13 23:00:00,54.0,47.0,-100.00,North,0,5.0,-999.0,76,-99.99,,,-99.99,0.000000,,2013-08-14 03:00:00,
2013-08-13 23:43:00,54.0,47.0,-100.00,North,0,5.0,-999.0,76,-99.99,,,-99.99,0.000000,,2013-08-14 03:43:00,
2013-08-13 23:53:00,54.0,47.0,-100.00,North,0,5.0,-999.0,76,-99.99,,,-99.99,0.000000,,2013-08-14 03:53:00,